Time;durP1;ratioP1;P1;durP2;ratioP2;P2;SDS_P1;SDS_P2;PMS_P1;PMS_P2;Temp;Humidity;BMP_temperature;BMP_pressure;BME280_temperature;BME280_humidity;BME280_pressure;Samples;Min_cycle;Max_cycle;Signal;HPM_P1;HPM_P2
2022/06/10 00:00:49;;;;;;;7.83;5.37;;;15.20;1.00;;;;;;6282284;22;20386;-83
2022/06/10 00:03:16;;;;;;;8.10;5.57;;;15.20;1.00;;;;;;6283911;22;20425;-84
2022/06/10 00:05:44;;;;;;;8.43;5.60;;;15.10;1.00;;;;;;6283112;22;20384;-84
2022/06/10 00:08:13;;;;;;;10.63;5.53;;;15.10;99.90;;;;;;6283032;22;20453;-84
2022/06/10 00:10:39;;;;;;;12.70;5.77;;;15.00;99.90;;;;;;6293845;22;20374;-85
2022/06/10 00:13:06;;;;;;;9.07;5.20;;;15.00;99.90;;;;;;6289785;22;20776;-82
2022/06/10 00:15:32;;;;;;;11.90;5.83;;;14.90;99.90;;;;;;6282081;22;20393;-84
2022/06/10 00:17:59;;;;;;;11.00;6.73;;;14.80;1.00;;;;;;6281849;22;20404;-83
2022/06/10 00:20:28;;;;;;;7.33;5.50;;;14.80;1.00;;;;;;6281226;22;20373;-84
2022/06/10 00:22:55;;;;;;;9.63;5.50;;;14.70;1.00;;;;;;6281295;22;20409;-84
2022/06/10 00:25:21;;;;;;;6.30;5.70;;;14.70;23.10;;;;;;6281638;22;20376;-83
2022/06/10 00:27:48;;;;;;;12.60;5.57;;;14.60;99.90;;;;;;6281299;22;20367;-83
2022/06/10 00:30:16;;;;;;;15.63;6.40;;;14.60;99.90;;;;;;6281095;22;20371;-84
2022/06/10 00:32:41;;;;;;;8.10;5.97;;;14.50;99.90;;;;;;6281497;22;20483;-84
2022/06/10 00:35:08;;;;;;;8.77;6.03;;;14.50;1.00;;;;;;6281655;22;20386;-84
2022/06/10 00:37:33;;;;;;;8.93;5.30;;;14.50;1.00;;;;;;6281794;22;20676;-82
2022/06/10 00:39:59;;;;;;;10.93;6.40;;;14.50;1.00;;;;;;6281865;22;20372;-84
2022/06/10 00:42:24;;;;;;;13.60;6.47;;;14.40;1.00;;;;;;6282006;22;20228;-85
2022/06/10 00:44:53;;;;;;;9.17;6.20;;;14.40;36.60;;;;;;6282051;22;20165;-83
2022/06/10 00:47:30;;;;;;;7.80;4.93;;;14.40;99.90;;;;;;6281921;22;20141;-84
2022/06/10 00:50:16;;;;;;;9.50;6.40;;;14.40;99.90;;;;;;6282027;22;20360;-83
2022/06/10 00:52:48;;;;;;;11.33;5.93;;;14.30;99.90;;;;;;6282557;22;20391;-84
2022/06/10 00:55:14;;;;;;;10.77;5.50;;;14.30;99.90;;;;;;6281798;22;20428;-84
2022/06/10 00:57:44;;;;;;;10.60;6.40;;;14.30;1.00;;;;;;6284028;22;20378;-84
2022/06/10 01:00:10;;;;;;;8.23;5.80;;;14.30;1.00;;;;;;6284019;22;20368;-84
2022/06/10 01:02:37;;;;;;;12.10;6.33;;;14.30;1.00;;;;;;6283061;22;20946;-84
2022/06/10 01:05:09;;;;;;;12.10;6.40;;;14.20;84.40;;;;;;6281560;22;20639;-84
2022/06/10 01:07:42;;;;;;;12.17;5.47;;;14.20;99.90;;;;;;6283715;22;20352;-84
2022/06/10 01:10:12;;;;;;;20.30;6.47;;;14.20;99.90;;;;;;6283450;22;20446;-84
2022/06/10 01:12:55;;;;;;;15.43;6.00;;;14.20;1.00;;;;;;6257018;22;20406;-85
2022/06/10 01:15:58;;;;;;;10.90;5.80;;;14.20;1.00;;;;;;6284512;22;20429;-84
2022/06/10 01:18:46;;;;;;;7.37;5.23;;;14.20;1.00;;;;;;6256550;22;20402;-84
2022/06/10 01:21:42;;;;;;;11.97;5.70;;;14.10;1.00;;;;;;6283079;22;20375;-84
2022/06/10 01:24:43;;;;;;;12.37;6.00;;;14.10;20.20;;;;;;6282978;22;20356;-83
2022/06/10 01:27:49;;;;;;;15.33;6.37;;;14.10;56.70;;;;;;6256574;22;20375;-84
2022/06/10 01:30:38;;;;;;;14.77;6.20;;;14.10;99.90;;;;;;6284149;22;20367;-83
2022/06/10 01:33:06;;;;;;;16.00;6.60;;;14.00;99.90;;;;;;6257683;22;20422;-84
2022/06/10 01:35:56;;;;;;;9.60;5.23;;;14.00;99.90;;;;;;6284088;22;20402;-84
2022/06/10 01:38:37;;;;;;;12.73;5.90;;;14.00;99.90;;;;;;6283030;22;20366;-84
2022/06/10 01:41:38;;;;;;;7.23;5.60;;;14.00;99.90;;;;;;6283312;22;20394;-84
2022/06/10 01:44:30;;;;;;;11.77;6.03;;;14.00;99.90;;;;;;6202167;22;20383;-83
2022/06/10 01:47:06;;;;;;;15.97;6.17;;;14.00;99.90;;;;;;6282122;22;20403;-84
2022/06/10 01:49:40;;;;;;;13.70;7.50;;;13.90;99.90;;;;;;6284795;22;20413;-84
2022/06/10 01:52:16;;;;;;;13.63;7.07;;;13.90;99.90;;;;;;6283707;22;20422;-83
2022/06/10 01:55:08;;;;;;;8.40;7.17;;;13.90;99.90;;;;;;6284277;22;20480;-84
2022/06/10 01:57:43;;;;;;;9.50;6.40;;;13.90;99.90;;;;;;6226399;22;20379;-84
2022/06/10 02:00:13;;;;;;;10.40;6.50;;;13.90;99.90;;;;;;6283048;22;21107;-83
2022/06/10 02:02:48;;;;;;;12.13;7.60;;;13.80;99.90;;;;;;6283960;22;20387;-84
2022/06/10 02:05:19;;;;;;;14.90;7.20;;;13.80;99.90;;;;;;6283418;22;20383;-84
2022/06/10 02:08:01;;;;;;;10.67;7.10;;;13.80;99.90;;;;;;6256494;22;20375;-82
2022/06/10 02:10:40;;;;;;;14.73;7.13;;;13.70;99.90;;;;;;6283848;22;20478;-84
2022/06/10 02:13:14;;;;;;;11.63;6.97;;;13.70;99.90;;;;;;6283481;22;20441;-84
2022/06/10 02:15:47;;;;;;;10.20;6.73;;;13.60;99.90;;;;;;6283639;22;20492;-84
2022/06/10 02:18:30;;;;;;;13.13;6.63;;;13.50;1.00;;;;;;6257064;22;20375;-84
2022/06/10 02:21:04;;;;;;;10.70;5.83;;;13.50;1.00;;;;;;6284445;22;20441;-85
2022/06/10 02:23:36;;;;;;;12.37;6.13;;;13.50;1.00;;;;;;6283251;22;20397;-83
2022/06/10 02:26:03;;;;;;;13.70;6.23;;;13.40;1.00;;;;;;6283005;22;20398;-84
2022/06/10 02:28:41;;;;;;;9.40;6.17;;;13.40;1.00;;;;;;6283762;22;20387;-84
2022/06/10 02:31:14;;;;;;;13.10;5.87;;;13.30;1.00;;;;;;6282654;22;20359;-84
2022/06/10 02:33:40;;;;;;;14.07;6.83;;;13.30;1.00;;;;;;6283051;22;20425;-84
2022/06/10 02:36:21;;;;;;;14.13;6.33;;;13.20;1.00;;;;;;6282754;22;20376;-84
2022/06/10 02:38:59;;;;;;;10.47;6.57;;;13.20;12.50;;;;;;6283502;22;20159;-84
2022/06/10 02:41:50;;;;;;;9.80;5.97;;;13.20;31.50;;;;;;6256340;22;20379;-84
2022/06/10 02:44:42;;;;;;;9.97;6.23;;;13.20;86.10;;;;;;6283729;22;20379;-84
2022/06/10 02:47:27;;;;;;;11.50;6.40;;;13.10;95.30;;;;;;6281649;22;20390;-84
2022/06/10 02:49:53;;;;;;;10.90;6.73;;;13.10;99.90;;;;;;6282165;22;20355;-83
2022/06/10 02:52:21;;;;;;;7.87;6.10;;;13.10;99.90;;;;;;6282608;22;20415;-83
2022/06/10 02:54:47;;;;;;;11.40;5.90;;;13.00;99.90;;;;;;6283704;22;20155;-84
2022/06/10 02:57:19;;;;;;;10.90;8.13;;;13.00;99.90;;;;;;6281903;22;21054;-83
2022/06/10 03:02:47;;;;;;;18.23;7.37;;;13.00;99.90;;;;;;6283729;22;20401;-84
2022/06/10 03:05:13;;;;;;;13.70;7.20;;;13.00;99.90;;;;;;6256687;22;20416;-83
2022/06/10 03:07:43;;;;;;;8.57;6.10;;;12.90;99.90;;;;;;6282345;22;20387;-83
2022/06/10 03:10:30;;;;;;;11.33;5.93;;;12.90;99.90;;;;;;6256360;22;20904;-83
2022/06/10 03:13:26;;;;;;;12.13;6.20;;;12.90;99.90;;;;;;6282652;22;20754;-82
2022/06/10 03:16:01;;;;;;;6.63;5.80;;;12.90;99.90;;;;;;6282533;22;20375;-83
2022/06/10 03:18:38;;;;;;;10.57;5.80;;;13.00;99.90;;;;;;6282759;22;20382;-84
2022/06/10 03:21:24;;;;;;;6.30;5.70;;;13.00;99.90;;;;;;6282651;22;20349;-84
2022/06/10 03:24:02;;;;;;;16.17;6.70;;;13.10;99.90;;;;;;6282338;22;20391;-82
2022/06/10 03:26:53;;;;;;;15.70;6.10;;;13.20;99.90;;;;;;6282612;22;20400;-84
2022/06/10 03:29:41;;;;;;;10.03;5.57;;;13.20;99.90;;;;;;6242687;22;20402;-82
2022/06/10 03:32:14;;;;;;;10.13;5.70;;;13.30;99.90;;;;;;6281521;22;20514;-84
2022/06/10 03:34:48;;;;;;;11.13;6.67;;;13.40;99.90;;;;;;6255910;22;20375;-83
2022/06/10 03:37:17;;;;;;;9.30;5.23;;;13.50;99.90;;;;;;6282348;22;20481;-84
2022/06/10 03:39:48;;;;;;;9.07;5.30;;;13.60;99.90;;;;;;6283301;22;20868;-84
2022/06/10 03:42:18;;;;;;;7.67;6.00;;;13.70;99.90;;;;;;6282918;22;20398;-84
2022/06/10 03:44:47;;;;;;;11.70;5.70;;;13.80;99.90;;;;;;6282887;22;20441;-84
2022/06/10 03:47:19;;;;;;;12.80;5.27;;;13.90;99.90;;;;;;6281559;22;20387;-82
2022/06/10 03:49:55;;;;;;;7.70;5.07;;;14.00;99.90;;;;;;6282887;22;20832;-83
2022/06/10 03:52:24;;;;;;;9.40;4.90;;;14.10;48.50;;;;;;6282921;22;20746;-84
2022/06/10 03:54:50;;;;;;;13.10;5.13;;;14.10;1.00;;;;;;6282104;22;20399;-83
2022/06/10 03:57:17;;;;;;;13.93;5.20;;;14.20;1.00;;;;;;6282932;22;20401;-84
2022/06/10 03:59:42;;;;;;;14.70;6.13;;;14.30;1.00;;;;;;6283080;22;20183;-84
2022/06/10 04:02:08;;;;;;;7.40;5.07;;;14.30;1.00;;;;;;6282209;22;20399;-84
2022/06/10 04:04:33;;;;;;;9.20;5.00;;;14.40;1.00;;;;;;6282298;22;20153;-81
2022/06/10 04:06:59;;;;;;;8.90;4.70;;;14.50;1.00;;;;;;6282017;22;20153;-83
2022/06/10 04:09:25;;;;;;;7.47;4.77;;;14.50;1.00;;;;;;6256376;22;20665;-84
2022/06/10 04:11:50;;;;;;;7.07;4.17;;;14.60;99.90;;;;;;6255001;22;20165;-82
2022/06/10 04:14:16;;;;;;;14.40;5.10;;;14.60;99.90;;;;;;6282765;22;20857;-84
2022/06/10 04:16:42;;;;;;;8.53;4.40;;;14.60;99.90;;;;;;6281282;22;20155;-84
2022/06/10 04:19:09;;;;;;;9.33;4.27;;;14.70;99.90;;;;;;6282133;22;20381;-84
2022/06/10 04:21:34;;;;;;;9.90;4.63;;;14.70;99.90;;;;;;6282417;22;20159;-84
2022/06/10 04:24:00;;;;;;;12.00;4.87;;;14.70;99.90;;;;;;6255522;22;20418;-84
2022/06/10 04:26:25;;;;;;;9.30;4.10;;;14.80;99.90;;;;;;6255945;22;20159;-84
2022/06/10 04:28:51;;;;;;;12.20;6.60;;;14.80;99.90;;;;;;6282012;22;20155;-83
2022/06/10 04:31:18;;;;;;;8.93;3.77;;;14.80;99.90;;;;;;6281836;22;20151;-83
2022/06/10 04:33:44;;;;;;;10.87;4.23;;;14.80;99.90;;;;;;6282260;22;20178;-84
2022/06/10 04:36:14;;;;;;;8.40;4.90;;;14.90;99.90;;;;;;6282096;22;20376;-83
2022/06/10 04:38:40;;;;;;;10.40;4.07;;;14.90;99.90;;;;;;6282783;22;20134;-84
2022/06/10 04:41:06;;;;;;;11.10;3.83;;;14.90;99.90;;;;;;6282467;22;20423;-83
2022/06/10 04:43:33;;;;;;;6.90;3.70;;;15.00;99.90;;;;;;6284796;22;20234;-84
2022/06/10 04:46:01;;;;;;;11.57;3.60;;;15.00;99.90;;;;;;6285314;22;20826;-84
2022/06/10 04:48:27;;;;;;;9.27;3.60;;;15.00;99.90;;;;;;6285002;22;20381;-84
2022/06/10 04:50:53;;;;;;;9.90;4.10;;;15.10;99.90;;;;;;6284208;22;20388;-83
2022/06/10 04:53:20;;;;;;;9.07;3.50;;;15.10;99.90;;;;;;6257696;22;20774;-84
2022/06/10 04:55:46;;;;;;;11.20;3.80;;;15.10;99.90;;;;;;6283385;22;20238;-84
2022/06/10 04:58:11;;;;;;;7.57;3.10;;;15.10;99.90;;;;;;6284851;22;20403;-83
2022/06/10 05:00:40;;;;;;;11.37;4.20;;;15.20;99.90;;;;;;6257247;22;20385;-84
2022/06/10 05:03:06;;;;;;;6.73;3.87;;;15.20;60.70;;;;;;6284412;22;20170;-84
2022/06/10 05:05:33;;;;;;;8.73;3.80;;;15.20;21.10;;;;;;6283583;22;20378;-84
2022/06/10 05:07:59;;;;;;;12.47;4.17;;;15.30;8.10;;;;;;6283733;22;20482;-84
2022/06/10 05:10:25;;;;;;;9.10;3.70;;;15.30;1.20;;;;;;6284362;22;20376;-84
2022/06/10 05:15:21;;;;;;;12.23;3.80;;;15.40;1.00;;;;;;6289065;22;20460;-81
2022/06/10 05:17:49;;;;;;;5.93;3.33;;;15.50;1.00;;;;;;6258666;22;20390;-82
2022/06/10 05:20:32;;;;;;;7.37;3.63;;;15.50;1.00;;;;;;6258596;22;20382;-82
2022/06/10 05:23:08;;;;;;;;;;;;;;;;;;;;;
2022/06/10 05:25:35;;;;;;;7.17;3.30;;;15.70;1.00;;;;;;6286039;22;20916;-81
2022/06/10 05:28:04;;;;;;;12.73;3.70;;;15.80;99.90;;;;;;6258048;22;20925;-82
2022/06/10 05:30:34;;;;;;;8.03;3.10;;;15.80;99.90;;;;;;6258771;22;20388;-83
2022/06/10 05:33:01;;;;;;;9.43;3.70;;;15.90;97.10;;;;;;6259192;22;20433;-82
2022/06/10 05:35:28;;;;;;;7.00;2.90;;;16.00;1.00;;;;;;6257221;22;20386;-82
2022/06/10 05:37:54;;;;;;;7.70;2.93;;;16.10;1.00;;;;;;6255240;22;20390;-83
2022/06/10 05:40:25;;;;;;;9.47;3.17;;;16.20;1.00;;;;;;6254331;22;20383;-82
2022/06/10 05:42:51;;;;;;;11.70;4.00;;;16.40;99.90;;;;;;6254827;22;20390;-84
2022/06/10 05:45:21;;;;;;;10.97;3.23;;;16.50;47.60;;;;;;6254240;22;20715;-82
2022/06/10 05:47:49;;;;;;;10.10;3.00;;;16.60;1.00;;;;;;6282520;22;20374;-83
2022/06/10 05:50:24;;;;;;;7.73;3.13;;;16.70;99.90;;;;;;6281795;22;20379;-83
2022/06/10 05:52:52;;;;;;;7.73;3.43;;;16.90;99.90;;;;;;6280678;22;20395;-82
2022/06/10 05:55:18;;;;;;;9.90;3.90;;;17.00;1.00;;;;;;6282135;22;20719;-82
2022/06/10 05:57:51;;;;;;;7.13;3.13;;;17.20;1.00;;;;;;6282886;22;20430;-83
2022/06/10 06:00:28;;;;;;;12.73;2.93;;;17.30;99.90;;;;;;6255079;22;20442;-84
2022/06/10 06:02:53;;;;;;;4.73;2.40;;;17.30;57.40;;;;;;6255382;22;20375;-83
2022/06/10 06:05:20;;;;;;;8.57;3.53;;;17.40;1.00;;;;;;6255560;22;20426;-83
2022/06/10 06:07:52;;;;;;;7.33;2.40;;;17.50;1.00;;;;;;6254540;22;20619;-83
2022/06/10 06:10:22;;;;;;;10.90;3.20;;;17.70;1.00;;;;;;6255010;22;20380;-82
2022/06/10 06:12:48;;;;;;;5.20;2.80;;;17.90;99.90;;;;;;6282749;22;20408;-82
2022/06/10 06:15:13;;;;;;;4.57;2.17;;;18.00;99.90;;;;;;6282125;22;20413;-83
2022/06/10 06:17:40;;;;;;;8.93;2.97;;;18.20;1.00;;;;;;6281222;22;20165;-83
2022/06/10 06:20:06;;;;;;;9.13;2.37;;;18.30;1.00;;;;;;6253253;22;20223;-83
2022/06/10 06:22:35;;;;;;;10.20;2.73;;;18.60;1.00;;;;;;6256001;22;20460;-83
2022/06/10 06:25:00;;;;;;;3.90;2.47;;;19.10;99.90;;;;;;6279298;22;20402;-83
2022/06/10 06:27:26;;;;;;;12.70;2.90;;;20.50;1.00;;;;;;6280440;22;20396;-83
2022/06/10 06:29:53;;;;;;;6.50;2.30;;;21.80;99.90;;;;;;6255964;22;20192;-84
2022/06/10 06:32:20;;;;;;;6.43;2.03;;;22.20;1.00;;;;;;6254926;22;20422;-83
2022/06/10 06:34:51;;;;;;;6.00;1.83;;;23.10;1.00;;;;;;6254943;22;20402;-83
2022/06/10 06:37:20;;;;;;;6.40;2.27;;;25.50;99.90;;;;;;6255662;22;20709;-84
2022/06/10 06:39:45;;;;;;;8.87;2.03;;;30.30;99.90;;;;;;6254402;22;20432;-84
2022/06/10 06:42:12;;;;;;;4.13;1.77;;;30.20;99.90;;;;;;6282096;22;20383;-83
2022/06/10 06:44:40;;;;;;;5.57;2.00;;;30.30;99.90;;;;;;6254390;22;20189;-84
2022/06/10 06:47:06;;;;;;;7.13;2.10;;;30.80;99.90;;;;;;6250061;22;20387;-84
2022/06/10 06:49:34;;;;;;;7.10;1.60;;;30.00;99.90;;;;;;6255135;22;20383;-83
2022/06/10 06:52:00;;;;;;;5.93;1.70;;;29.40;99.90;;;;;;6256035;22;20390;-84
2022/06/10 06:54:25;;;;;;;6.47;1.67;;;29.20;99.90;;;;;;6257506;22;20406;-84
2022/06/10 06:56:51;;;;;;;5.83;1.93;;;29.20;99.90;;;;;;6254836;22;20157;-84
2022/06/10 06:59:17;;;;;;;5.43;2.43;;;28.80;99.90;;;;;;6257221;22;20239;-83
2022/06/10 07:13:57;;;;;;;7.10;2.30;;;27.80;99.90;;;;;;6283989;22;1513277;-84
2022/06/10 07:19:32;;;;;;;8.60;2.00;;;24.10;99.90;;;;;;6296969;22;20399;-83
2022/06/10 07:22:39;;;;;;;5.67;1.90;;;23.70;99.90;;;;;;6290722;22;20410;-83
2022/06/10 07:25:04;;;;;;;7.50;2.40;;;23.40;99.90;;;;;;6317992;22;20883;-84
2022/06/10 07:27:30;;;;;;;8.37;2.37;;;23.20;99.90;;;;;;6317706;22;20379;-83
2022/06/10 07:29:55;;;;;;;5.57;2.43;;;23.20;99.90;;;;;;6291718;22;20366;-83
2022/06/10 07:32:21;;;;;;;4.53;1.63;;;23.60;99.90;;;;;;6291777;22;20585;-81
2022/06/10 07:34:46;;;;;;;6.50;2.23;;;24.20;99.90;;;;;;6291703;22;20627;-81
2022/06/10 07:37:12;;;;;;;5.63;2.07;;;24.30;99.90;;;;;;6318233;22;20150;-82
2022/06/10 07:39:38;;;;;;;7.40;1.90;;;24.50;99.90;;;;;;6292415;22;20231;-81
2022/06/10 07:42:04;;;;;;;7.23;1.70;;;24.70;99.90;;;;;;6318593;22;20376;-81
2022/06/10 07:44:33;;;;;;;6.07;1.67;;;24.50;99.90;;;;;;6291905;22;20185;-81
2022/06/10 07:47:02;;;;;;;7.40;1.77;;;24.20;99.90;;;;;;6289254;22;20483;-85
2022/06/10 07:49:29;;;;;;;8.27;2.10;;;23.90;99.90;;;;;;6290529;22;20421;-81
2022/06/10 07:51:54;;;;;;;4.77;1.80;;;23.50;99.90;;;;;;6290428;22;20420;-82
2022/06/10 07:54:20;;;;;;;4.87;1.87;;;23.20;99.90;;;;;;6317913;22;20404;-81
2022/06/10 07:56:45;;;;;;;5.20;1.50;;;22.90;99.90;;;;;;6290448;22;20473;-81
2022/06/10 07:59:12;;;;;;;6.07;2.00;;;22.60;99.90;;;;;;6317651;22;20156;-81
2022/06/10 08:01:37;;;;;;;6.80;2.13;;;22.30;99.90;;;;;;6290757;22;20160;-81
2022/06/10 08:04:06;;;;;;;7.43;2.67;;;22.10;99.90;;;;;;6289544;22;20415;-82
2022/06/10 08:06:34;;;;;;;5.87;1.80;;;22.00;99.90;;;;;;6317918;22;20167;-81
2022/06/10 08:09:00;;;;;;;9.73;2.10;;;21.90;99.90;;;;;;6318986;22;20376;-84
2022/06/10 08:11:26;;;;;;;9.33;1.90;;;21.90;99.90;;;;;;6292066;22;20422;-84
2022/06/10 08:13:52;;;;;;;4.17;1.40;;;21.90;99.90;;;;;;6282188;22;20749;-82
2022/06/10 08:16:18;;;;;;;8.07;2.40;;;21.90;99.90;;;;;;6281618;22;20147;-82
2022/06/10 08:18:44;;;;;;;9.37;2.00;;;21.90;99.90;;;;;;6280763;22;20218;-82
2022/06/10 08:34:41;;;;;;;;;;;;;;;;;;;;;
2022/06/10 08:37:24;;;;;;;5.27;1.80;;;22.70;99.90;;;;;;6272308;22;20379;-81
2022/06/10 08:39:55;;;;;;;8.67;2.17;;;22.70;99.90;;;;;;6279583;22;20486;-80
2022/06/10 08:42:39;;;;;;;8.27;1.90;;;22.70;99.90;;;;;;6278542;22;20429;-81
2022/06/10 08:45:30;;;;;;;4.50;1.30;;;22.70;99.90;;;;;;6278914;22;20967;-82
2022/06/10 08:48:02;;;;;;;4.27;2.53;;;22.80;99.90;;;;;;6278501;22;20413;-81
2022/06/10 08:50:46;;;;;;;6.80;2.40;;;22.80;99.90;;;;;;6277523;22;21148;-81
2022/06/10 08:53:33;;;;;;;4.80;1.87;;;22.90;99.90;;;;;;6276038;22;20433;-81
2022/06/10 08:56:06;;;;;;;7.73;2.33;;;23.00;99.90;;;;;;6278030;22;20728;-81
2022/06/10 09:18:44;;;;;;;6.30;1.73;;;24.10;99.90;;;;;;6250381;22;20447;-81
2022/06/10 09:21:56;;;;;;;4.00;1.67;;;24.20;99.90;;;;;;6249770;22;20377;-83
2022/06/10 09:24:42;;;;;;;5.27;1.90;;;24.40;99.90;;;;;;6223440;22;20413;-81
2022/06/10 09:27:20;;;;;;;5.10;1.90;;;24.70;99.90;;;;;;6249309;22;20385;-81
2022/06/10 09:29:52;;;;;;;5.27;2.00;;;25.10;99.90;;;;;;6278293;22;20347;-81
2022/06/10 09:33:01;;;;;;;5.20;1.40;;;25.50;99.90;;;;;;6250336;22;20418;-81
2022/06/10 09:35:53;;;;;;;;;;;;;;;;;;;;;
2022/06/10 09:38:33;;;;;;;13.07;2.00;;;26.30;99.90;;;;;;6268630;22;20470;-81
2022/06/10 09:41:28;;;;;;;8.80;1.60;;;26.50;99.90;;;;;;6251618;22;20713;-81
2022/06/10 09:44:11;;;;;;;6.17;2.00;;;26.90;99.90;;;;;;6243982;22;20399;-81
2022/06/10 09:47:01;;;;;;;4.27;1.73;;;27.30;99.90;;;;;;6277070;22;20352;-81
2022/06/10 09:49:47;;;;;;;7.63;1.73;;;27.90;99.90;;;;;;6250737;22;20382;-81
2022/06/10 09:52:29;;;;;;;4.67;1.60;;;28.20;99.90;;;;;;6276328;22;20920;-83
2022/06/10 09:55:25;;;;;;;2.33;1.30;;;28.50;99.90;;;;;;6276987;22;20387;-81
2022/06/10 09:58:06;;;;;;;;;;;;;;;;;;;;;
2022/06/10 10:03:45;;;;;;;5.13;1.47;;;28.80;99.90;;;;;;6259851;22;20405;-82
2022/06/10 10:06:38;;;;;;;7.10;1.87;;;29.00;99.90;;;;;;6249495;22;20397;-82
2022/06/10 10:09:22;;;;;;;7.70;1.73;;;29.40;99.90;;;;;;6277147;22;20437;-82
2022/06/10 10:12:07;;;;;;;5.80;1.47;;;29.90;99.90;;;;;;6249809;22;20429;-82
2022/06/10 10:14:53;;;;;;;6.73;1.80;;;30.00;99.90;;;;;;6307651;22;20463;-82
2022/06/10 10:17:42;;;;;;;4.00;2.10;;;30.00;99.90;;;;;;6280126;22;20832;-82
2022/06/10 10:21:02;;;;;;;;;;;;;;;;;;;;;
2022/06/10 10:24:33;;;;;;;4.77;1.40;;;29.60;99.90;;;;;;6260392;22;20488;-83
2022/06/10 10:27:00;;;;;;;4.77;1.53;;;29.90;99.90;;;;;;6307292;22;20444;-82
2022/06/10 10:30:06;;;;;;;;;;;;;;;;;;;;;
2022/06/10 10:32:57;;;;;;;;;;;;;;;;;;;;;
2022/06/10 10:35:59;;;;;;;6.20;1.60;;;30.50;99.90;;;;;;6309106;22;20488;-84
2022/06/10 10:38:49;;;;;;;;;;;;;;;;;;;;;
2022/06/10 10:41:46;;;;;;;;;;;;;;;;;;;;;
2022/06/10 10:44:37;;;;;;;;;;;;;;;;;;;;;
2022/06/10 10:47:22;;;;;;;4.13;1.37;;;35.10;99.90;;;;;;6308629;22;20737;-84
2022/06/10 10:50:20;;;;;;;9.63;1.80;;;36.30;99.90;;;;;;6282358;22;20384;-83
2022/06/10 10:53:51;;;;;;;;;;;;;;;;;;;;;
2022/06/10 11:01:43;;;;;;;7.53;1.70;;;36.70;99.90;;;;;;6289363;22;20445;-83
2022/06/10 11:25:01;;;;;;;4.30;1.50;;;34.30;99.90;;;;;;6267347;22;20418;-83
2022/06/10 11:28:03;;;;;;;;;;;;;;;;;;;;;
2022/06/10 11:31:30;;;;;;;6.77;2.07;;;34.00;99.90;;;;;;6278384;22;20466;-82
2022/06/10 11:34:10;;;;;;;;;;;;;;;;;;;;;
2022/06/10 11:37:09;;;;;;;;;;;;;;;;;;;;;
2022/06/10 11:43:12;;;;;;;3.43;1.50;;;33.20;99.90;;;;;;6283767;22;20418;-84
2022/06/10 11:49:14;;;;;;;6.23;1.93;;;33.60;99.90;;;;;;6270097;22;20461;-84
2022/06/10 11:51:57;;;;;;;6.30;1.43;;;34.00;99.90;;;;;;6281886;22;20386;-82
2022/06/10 11:54:35;;;;;;;4.67;2.30;;;34.00;99.90;;;;;;6282131;22;20403;-84
2022/06/10 12:00:27;;;;;;;6.40;2.17;;;34.50;99.90;;;;;;6284190;22;20939;-83
2022/06/10 12:03:23;;;;;;;6.93;2.07;;;34.60;99.90;;;;;;6282930;22;20413;-83
2022/06/10 12:06:07;;;;;;;9.43;2.30;;;35.50;99.90;;;;;;6238287;22;20791;-83
2022/06/10 12:08:48;;;;;;;4.63;1.67;;;36.20;99.90;;;;;;6285150;22;20365;-83
2022/06/10 12:11:26;;;;;;;4.23;1.23;;;36.30;99.90;;;;;;6284521;22;20450;-83
2022/06/10 12:14:07;;;;;;;5.70;1.37;;;36.60;99.90;;;;;;6282334;22;20904;-83
2022/06/10 12:16:45;;;;;;;;;;;;;;;;;;;;;
2022/06/10 12:19:52;;;;;;;5.13;1.40;;;36.30;99.90;;;;;;6284914;22;20375;-83
2022/06/10 12:22:29;;;;;;;;;;;;;;;;;;;;;
2022/06/10 12:25:21;;;;;;;3.70;1.50;;;35.90;99.90;;;;;;6284126;22;20414;-85
2022/06/10 12:28:03;;;;;;;4.73;1.70;;;36.00;99.90;;;;;;6281520;22;20378;-83
2022/06/10 12:30:46;;;;;;;4.10;1.63;;;35.10;99.90;;;;;;6283759;22;20363;-82
2022/06/10 12:33:26;;;;;;;10.23;1.90;;;34.30;99.90;;;;;;6284390;22;20430;-83
2022/06/10 12:35:54;;;;;;;5.80;2.10;;;34.20;99.90;;;;;;6282248;22;20509;-83
2022/06/10 12:38:26;;;;;;;6.80;2.77;;;33.60;99.90;;;;;;6281248;22;20383;-83
2022/06/10 12:41:07;;;;;;;4.57;2.23;;;33.20;99.90;;;;;;6283090;22;20398;-83
2022/06/10 12:43:37;;;;;;;4.73;1.83;;;33.00;99.90;;;;;;6280032;22;20426;-83
2022/06/10 12:46:07;;;;;;;6.67;1.80;;;32.80;99.90;;;;;;6283040;22;20451;-83
2022/06/10 12:48:49;;;;;;;7.80;2.10;;;32.60;99.90;;;;;;6281588;22;20466;-83
2022/06/10 12:51:34;;;;;;;5.90;2.20;;;32.40;99.90;;;;;;6281283;22;20379;-82
2022/06/10 12:54:30;;;;;;;7.07;2.10;;;32.40;99.90;;;;;;6282537;22;20391;-83
2022/06/10 12:57:29;;;;;;;6.87;1.83;;;32.80;99.90;;;;;;6282914;22;20398;-83
2022/06/10 13:00:28;;;;;;;4.73;1.83;;;33.10;99.90;;;;;;6281250;22;20368;-84
2022/06/10 13:03:17;;;;;;;5.03;1.70;;;33.40;99.90;;;;;;6280889;22;20491;-83
2022/06/10 13:05:50;;;;;;;4.87;1.63;;;33.50;99.90;;;;;;6281306;22;20428;-83
2022/06/10 13:08:38;;;;;;;4.73;2.27;;;33.50;99.90;;;;;;6277860;22;20380;-83
2022/06/10 13:11:07;;;;;;;4.07;1.80;;;33.20;99.90;;;;;;6275702;22;20398;-83
2022/06/10 13:13:36;;;;;;;9.70;3.07;;;33.00;99.90;;;;;;6296529;22;20409;-83
2022/06/10 13:16:38;;;;;;;5.63;1.93;;;32.80;99.90;;;;;;6311148;22;20402;-83
2022/06/10 13:19:24;;;;;;;6.73;1.73;;;33.00;99.90;;;;;;6314893;22;20378;-83
2022/06/10 13:21:52;;;;;;;5.00;1.80;;;32.90;99.90;;;;;;6287298;22;21050;-83
2022/06/10 13:24:19;;;;;;;6.73;1.83;;;32.90;99.90;;;;;;6314399;22;20401;-83
2022/06/10 13:26:54;;;;;;;6.73;2.00;;;32.60;99.90;;;;;;6313792;22;20374;-83
2022/06/10 13:29:22;;;;;;;7.50;2.00;;;32.40;99.90;;;;;;6312517;22;20353;-83
2022/06/10 13:32:03;;;;;;;;;;;;;;;;;;;;;
2022/06/10 13:34:42;;;;;;;6.80;1.87;;;32.40;99.90;;;;;;6311297;22;20410;-83
2022/06/10 13:37:25;;;;;;;;;;;;;;;;;;;;;
2022/06/10 13:39:58;;;;;;;3.53;1.93;;;31.90;99.90;;;;;;6312804;22;20390;-83
2022/06/10 13:42:41;;;;;;;6.30;2.10;;;31.70;99.90;;;;;;6313382;22;20413;-83
2022/06/10 13:45:15;;;;;;;3.00;1.30;;;31.80;99.90;;;;;;6286744;22;20411;-82
2022/06/10 13:48:10;;;;;;;6.03;1.73;;;31.20;99.90;;;;;;6315060;22;20835;-83
2022/06/10 13:53:38;;;;;;;5.23;1.80;;;30.80;99.90;;;;;;6319390;22;20412;-83
2022/06/10 13:56:42;;;;;;;3.20;1.40;;;30.50;99.90;;;;;;6307301;22;20389;-83
2022/06/10 14:06:18;;;;;;;3.63;1.40;;;29.60;99.90;;;;;;6282418;22;20428;-83
2022/06/10 14:08:58;;;;;;;3.23;1.53;;;29.40;99.90;;;;;;6280451;22;20420;-85
2022/06/10 14:11:36;;;;;;;5.30;1.43;;;29.20;99.90;;;;;;6309377;22;20355;-83
2022/06/10 14:14:10;;;;;;;3.10;1.70;;;29.10;99.90;;;;;;6310186;22;20410;-83
2022/06/10 14:16:39;;;;;;;5.83;1.63;;;29.00;99.90;;;;;;6281151;22;20419;-83
2022/06/10 14:19:18;;;;;;;6.50;1.40;;;28.80;99.90;;;;;;6283042;22;20436;-83
2022/06/10 14:21:47;;;;;;;3.03;1.27;;;28.70;99.90;;;;;;6283727;22;20421;-83
2022/06/10 14:24:31;;;;;;;5.40;1.60;;;28.60;99.90;;;;;;6284748;22;20398;-83
2022/06/10 14:27:19;;;;;;;6.60;1.50;;;28.50;99.90;;;;;;6284343;22;20913;-83
2022/06/10 14:29:51;;;;;;;3.13;1.40;;;28.60;99.90;;;;;;6283685;22;20377;-84
2022/06/10 14:32:36;;;;;;;3.33;1.00;;;28.60;99.90;;;;;;6281251;22;20378;-83
2022/06/10 14:35:52;;;;;;;;;;;;;;;;;;;;;
2022/06/10 14:38:20;;;;;;;4.00;1.20;;;28.60;99.90;;;;;;6309472;22;20844;-83
2022/06/10 14:41:18;;;;;;;3.10;1.20;;;28.50;99.90;;;;;;6308949;22;20847;-82
2022/06/10 14:44:02;;;;;;;3.70;1.47;;;28.30;99.90;;;;;;6281606;22;20474;-83
2022/06/10 14:46:35;;;;;;;3.20;1.30;;;28.10;99.90;;;;;;6282157;22;20864;-83
2022/06/10 14:49:25;;;;;;;3.10;1.40;;;27.90;99.90;;;;;;6283609;22;20431;-82
2022/06/10 14:52:09;;;;;;;6.60;1.43;;;27.90;99.90;;;;;;6312700;22;20817;-82
2022/06/10 14:55:12;;;;;;;4.67;1.50;;;27.90;99.90;;;;;;6309642;22;20485;-83
2022/06/10 15:03:38;;;;;;;3.40;1.53;;;28.10;99.90;;;;;;6282633;22;20791;-83
2022/06/10 15:06:29;;;;;;;3.50;1.20;;;28.10;99.90;;;;;;6282456;22;20394;-82
2022/06/10 15:12:49;;;;;;;;;;;;;;;;;;;;;
2022/06/10 15:26:01;;;;;;;;;;;;;;;;;;;;;
2022/06/10 15:31:34;;;;;;;6.80;1.83;;;27.40;99.90;;;;;;6294167;22;20386;-82
2022/06/10 15:34:23;;;;;;;4.47;1.40;;;27.40;99.90;;;;;;6282976;22;20937;-82
2022/06/10 15:43:20;;;;;;;5.00;1.33;;;27.30;99.90;;;;;;6310006;22;20357;-84
2022/06/10 15:46:42;;;;;;;;;;;;;;;;;;;;;
2022/06/10 15:49:38;;;;;;;3.00;1.63;;;27.20;99.90;;;;;;6271731;22;20469;-83
2022/06/10 15:58:34;;;;;;;3.50;1.60;;;27.20;99.90;;;;;;6310603;22;20386;-82
2022/06/10 16:01:01;;;;;;;4.03;1.93;;;27.30;99.90;;;;;;6311523;22;20365;-83
2022/06/10 16:03:27;;;;;;;7.57;1.90;;;27.40;99.90;;;;;;6284039;22;20413;-83
2022/06/10 16:05:55;;;;;;;5.70;1.53;;;27.40;99.90;;;;;;6284223;22;20844;-83
2022/06/10 16:08:23;;;;;;;5.23;1.93;;;27.50;99.90;;;;;;6282175;22;20457;-81
2022/06/10 16:10:56;;;;;;;6.17;2.00;;;27.50;99.90;;;;;;6284419;22;20928;-81
2022/06/10 16:13:47;;;;;;;5.30;1.50;;;27.50;99.90;;;;;;6278207;22;20438;-84
2022/06/10 16:16:39;;;;;;;5.10;1.83;;;27.50;99.90;;;;;;6278811;22;20478;-83
2022/06/10 16:19:14;;;;;;;5.23;1.50;;;27.50;99.90;;;;;;6265477;22;20382;-83